WEATHER DATA

YESTERDAY
Time Temp. Dewp. Hum. Bar.
00:04 2.5 -2.7 67 1016.4
00:14 2.4 -2.7 67 1016.4
00:24 2.4 -2.7 67 1016.6
00:35 2.4 -2.7 67 1016.7
00:54 2.5 -2.5 68 1016.8
01:04 2.5 -2.5 68 1016.8
01:15 2.6 -2.4 68 1016.9
01:25 2.5 -2.5 68 1016.9
01:34 2.4 -2.6 68 1017
01:45 2.3 -2.6 68 1017.1
01:55 2.3 -2.6 68 1017.1
02:05 2.2 -2.7 68 1017.1
02:25 2.2 -2.6 69 1017.2
02:35 2.2 -2.6 69 1017.2
02:45 2.3 -2.5 69 1017.2
02:56 2.4 -2.2 70 1017.2
03:06 2.4 -2.2 70 1017.2
03:16 2.5 -2.3 69 1017.2
03:25 2.4 -2.2 70 1017.3
03:36 2.4 -2.2 70 1017.3
03:46 2.4 -2.2 70 1017.1
03:56 2.6 -2 70 1017
04:06 2.6 -2 70 1017.1
04:16 2.6 -2 70 1017.2
04:26 2.6 -2 70 1017.3
04:36 2.6 -2.2 69 1017.3
04:47 2.6 -2.2 69 1017.3
04:57 2.6 -2.2 69 1017.4
05:07 2.6 -2.2 69 1017.6
05:16 2.4 -2.4 69 1017.6
05:27 2.3 -2.3 70 1017.7
05:37 2.2 -2.4 70 1017.7
05:47 2.2 -2.4 70 1017.8
05:57 2.2 -2.4 70 1017.9
06:07 2.2 -2.6 69 1018
06:17 2.1 -2.6 69 1018.1
06:27 2 -2.7 69 1018.1
06:38 2 -2.7 69 1018.2
06:48 1.9 -2.8 69 1018.2
06:58 2 -2.7 69 1018.3
07:08 2.1 -2.5 70 1018.5
07:18 2.2 -2.4 70 1018.7
07:28 2.3 -2.3 70 1018.7
07:38 2.5 -2.1 70 1018.8
07:49 2.7 -2 70 1018.9
07:58 3.1 -1.6 70 1019
08:08 4.1 -0.9 69 1019.1
08:18 5.3 -0.5 66 1019.2
08:29 7.3 1.2 65 1019.3
08:39 7.9 0.9 61 1019.4
08:48 8.1 0.8 60 1019.7
08:59 8.2 0.7 59 1019.8
09:09 8.4 0.6 58 1019.9
09:19 8.8 1 58 1020
09:29 9 0.9 57 1020.1
09:39 9.9 1.3 55 1020.1
09:49 13.2 3 50 1020.2
09:59 16.9 4.3 43 1020.3
10:09 19.6 5.3 39 1020.4
10:20 22.2 6 35 1020.5
10:30 24.2 6.5 32 1020.6
10:39 25.6 7.2 31 1020.6
10:50 26.8 7.8 30 1020.8
11:00 27.5 7.4 28 1020.9
11:10 26.6 5 25 1020.9
11:20 26.2 5.2 26 1020.9
11:28 26.8 4 23 1021.1

DAY STATISTIC

2020-04-04
TEMPERATURE
AVERAGE
6.6
HIGH
27.5
11:00
LOW
1.9
06:48
PRESSURE
AVERAGE
1018.3
HIGH
1021.1
11:28
LOW
1016.4
00:04
DEWPOINT
AVERAGE
-0.6
HIGH
7.8
10:50
LOW
-2.8
06:48
HUMIDITY
AVERAGE
62
HIGH
70
02:56
LOW
23
11:28
TEMPERATURE (°C)
LOW
1.9
HIGH
27.5
AVERAGE
6.6
PRESSURE (hpa)
LOW
1016.4
HIGH
1021.1
AVERAGE
1018.3
DEVICE